sensor_id;sensor_type;location;lat;lon;timestamp;P1;durP1;ratioP1;P2;durP2;ratioP2
18304;SDS011;9278;52.156;21.048;2023-04-15T00:01:14;13.27;;;7.82;;
18304;SDS011;9278;52.156;21.048;2023-04-15T00:03:45;13.75;;;8.18;;
18304;SDS011;9278;52.156;21.048;2023-04-15T00:06:14;13.32;;;7.82;;
18304;SDS011;9278;52.156;21.048;2023-04-15T00:08:42;14.80;;;9.27;;
18304;SDS011;9278;52.156;21.048;2023-04-15T00:11:12;14.18;;;8.27;;
18304;SDS011;9278;52.156;21.048;2023-04-15T00:13:40;14.65;;;9.10;;
18304;SDS011;9278;52.156;21.048;2023-04-15T00:16:09;15.85;;;8.77;;
18304;SDS011;9278;52.156;21.048;2023-04-15T00:18:37;17.77;;;9.45;;
18304;SDS011;9278;52.156;21.048;2023-04-15T00:21:06;15.18;;;9.82;;
18304;SDS011;9278;52.156;21.048;2023-04-15T00:23:35;16.08;;;9.48;;
18304;SDS011;9278;52.156;21.048;2023-04-15T00:26:03;19.20;;;10.25;;
18304;SDS011;9278;52.156;21.048;2023-04-15T00:28:34;17.10;;;9.45;;
18304;SDS011;9278;52.156;21.048;2023-04-15T00:31:02;15.23;;;8.88;;
18304;SDS011;9278;52.156;21.048;2023-04-15T00:33:31;14.75;;;9.70;;
18304;SDS011;9278;52.156;21.048;2023-04-15T00:35:59;15.27;;;9.23;;
18304;SDS011;9278;52.156;21.048;2023-04-15T00:38:28;15.07;;;9.30;;
18304;SDS011;9278;52.156;21.048;2023-04-15T00:40:57;17.30;;;9.75;;
18304;SDS011;9278;52.156;21.048;2023-04-15T00:43:25;16.30;;;9.80;;
18304;SDS011;9278;52.156;21.048;2023-04-15T00:45:56;15.98;;;9.85;;
18304;SDS011;9278;52.156;21.048;2023-04-15T00:48:26;15.88;;;9.27;;
18304;SDS011;9278;52.156;21.048;2023-04-15T00:50:54;17.15;;;9.10;;
18304;SDS011;9278;52.156;21.048;2023-04-15T00:53:23;16.35;;;9.50;;
18304;SDS011;9278;52.156;21.048;2023-04-15T00:55:51;14.35;;;8.85;;
18304;SDS011;9278;52.156;21.048;2023-04-15T00:58:20;14.27;;;8.73;;
18304;SDS011;9278;52.156;21.048;2023-04-15T01:00:48;14.95;;;9.05;;
18304;SDS011;9278;52.156;21.048;2023-04-15T01:03:21;16.40;;;9.95;;
18304;SDS011;9278;52.156;21.048;2023-04-15T01:05:50;14.25;;;9.15;;
18304;SDS011;9278;52.156;21.048;2023-04-15T01:08:25;16.90;;;10.07;;
18304;SDS011;9278;52.156;21.048;2023-04-15T01:10:54;15.63;;;9.55;;
18304;SDS011;9278;52.156;21.048;2023-04-15T01:13:23;17.30;;;10.40;;
18304;SDS011;9278;52.156;21.048;2023-04-15T01:15:52;19.10;;;10.75;;
18304;SDS011;9278;52.156;21.048;2023-04-15T01:18:22;15.65;;;9.55;;
18304;SDS011;9278;52.156;21.048;2023-04-15T01:20:50;20.50;;;11.07;;
18304;SDS011;9278;52.156;21.048;2023-04-15T01:23:22;24.30;;;11.15;;
18304;SDS011;9278;52.156;21.048;2023-04-15T01:25:53;21.77;;;11.50;;
18304;SDS011;9278;52.156;21.048;2023-04-15T01:28:22;19.20;;;10.35;;
18304;SDS011;9278;52.156;21.048;2023-04-15T01:31:03;16.13;;;10.23;;
18304;SDS011;9278;52.156;21.048;2023-04-15T01:33:35;16.95;;;10.02;;
18304;SDS011;9278;52.156;21.048;2023-04-15T01:36:05;17.58;;;10.77;;
18304;SDS011;9278;52.156;21.048;2023-04-15T01:38:35;21.02;;;11.48;;
18304;SDS011;9278;52.156;21.048;2023-04-15T01:41:05;20.05;;;11.52;;
18304;SDS011;9278;52.156;21.048;2023-04-15T01:43:34;18.02;;;11.00;;
18304;SDS011;9278;52.156;21.048;2023-04-15T01:46:03;20.48;;;11.75;;
18304;SDS011;9278;52.156;21.048;2023-04-15T01:48:32;19.15;;;11.40;;
18304;SDS011;9278;52.156;21.048;2023-04-15T01:51:02;17.67;;;10.98;;
18304;SDS011;9278;52.156;21.048;2023-04-15T01:53:31;16.48;;;10.77;;
18304;SDS011;9278;52.156;21.048;2023-04-15T01:56:00;19.48;;;11.38;;
18304;SDS011;9278;52.156;21.048;2023-04-15T01:58:31;20.63;;;11.40;;
18304;SDS011;9278;52.156;21.048;2023-04-15T02:00:59;18.80;;;10.70;;
18304;SDS011;9278;52.156;21.048;2023-04-15T02:03:30;19.83;;;11.48;;
18304;SDS011;9278;52.156;21.048;2023-04-15T02:05:59;19.83;;;11.38;;
18304;SDS011;9278;52.156;21.048;2023-04-15T02:08:28;19.58;;;11.65;;
18304;SDS011;9278;52.156;21.048;2023-04-15T02:10:56;20.20;;;11.90;;
18304;SDS011;9278;52.156;21.048;2023-04-15T02:13:27;20.48;;;11.82;;
18304;SDS011;9278;52.156;21.048;2023-04-15T02:15:57;19.13;;;11.40;;
18304;SDS011;9278;52.156;21.048;2023-04-15T02:18:26;20.00;;;11.75;;
18304;SDS011;9278;52.156;21.048;2023-04-15T02:20:54;20.42;;;11.98;;
18304;SDS011;9278;52.156;21.048;2023-04-15T02:23:24;20.38;;;11.93;;
18304;SDS011;9278;52.156;21.048;2023-04-15T02:25:52;22.70;;;12.32;;
18304;SDS011;9278;52.156;21.048;2023-04-15T02:28:21;20.45;;;12.40;;
18304;SDS011;9278;52.156;21.048;2023-04-15T02:30:49;20.20;;;11.82;;
18304;SDS011;9278;52.156;21.048;2023-04-15T02:33:21;18.80;;;11.80;;
18304;SDS011;9278;52.156;21.048;2023-04-15T02:35:50;23.65;;;11.20;;
18304;SDS011;9278;52.156;21.048;2023-04-15T02:38:18;18.70;;;11.05;;
18304;SDS011;9278;52.156;21.048;2023-04-15T02:40:47;20.13;;;11.73;;
18304;SDS011;9278;52.156;21.048;2023-04-15T02:43:16;19.05;;;11.07;;
18304;SDS011;9278;52.156;21.048;2023-04-15T02:45:45;19.48;;;12.07;;
18304;SDS011;9278;52.156;21.048;2023-04-15T02:48:13;19.75;;;11.95;;
18304;SDS011;9278;52.156;21.048;2023-04-15T02:50:46;18.08;;;11.45;;
18304;SDS011;9278;52.156;21.048;2023-04-15T02:53:15;19.65;;;12.30;;
18304;SDS011;9278;52.156;21.048;2023-04-15T02:55:45;20.85;;;12.40;;
18304;SDS011;9278;52.156;21.048;2023-04-15T02:58:13;19.23;;;12.20;;
18304;SDS011;9278;52.156;21.048;2023-04-15T03:04:54;19.05;;;12.40;;
18304;SDS011;9278;52.156;21.048;2023-04-15T03:07:25;21.92;;;12.25;;
18304;SDS011;9278;52.156;21.048;2023-04-15T03:09:53;22.02;;;12.50;;
18304;SDS011;9278;52.156;21.048;2023-04-15T03:12:21;19.92;;;12.82;;
18304;SDS011;9278;52.156;21.048;2023-04-15T03:14:53;20.30;;;12.68;;
18304;SDS011;9278;52.156;21.048;2023-04-15T03:17:28;19.42;;;11.68;;
18304;SDS011;9278;52.156;21.048;2023-04-15T03:19:57;23.92;;;13.02;;
18304;SDS011;9278;52.156;21.048;2023-04-15T03:22:28;19.25;;;12.35;;
18304;SDS011;9278;52.156;21.048;2023-04-15T03:24:56;20.15;;;12.77;;
18304;SDS011;9278;52.156;21.048;2023-04-15T03:27:25;20.13;;;12.57;;
18304;SDS011;9278;52.156;21.048;2023-04-15T03:29:57;25.77;;;12.68;;
18304;SDS011;9278;52.156;21.048;2023-04-15T03:32:29;21.75;;;12.27;;
18304;SDS011;9278;52.156;21.048;2023-04-15T03:34:57;20.00;;;11.63;;
18304;SDS011;9278;52.156;21.048;2023-04-15T03:37:27;18.17;;;11.52;;
18304;SDS011;9278;52.156;21.048;2023-04-15T03:39:56;18.00;;;12.15;;
18304;SDS011;9278;52.156;21.048;2023-04-15T03:42:24;20.00;;;12.65;;
18304;SDS011;9278;52.156;21.048;2023-04-15T03:44:53;21.20;;;12.50;;
18304;SDS011;9278;52.156;21.048;2023-04-15T03:47:22;16.98;;;11.50;;
18304;SDS011;9278;52.156;21.048;2023-04-15T03:49:50;22.83;;;12.40;;
18304;SDS011;9278;52.156;21.048;2023-04-15T03:52:18;18.35;;;12.05;;
18304;SDS011;9278;52.156;21.048;2023-04-15T03:54:48;17.70;;;11.63;;
18304;SDS011;9278;52.156;21.048;2023-04-15T03:57:16;18.45;;;12.10;;
18304;SDS011;9278;52.156;21.048;2023-04-15T03:59:45;18.60;;;11.75;;
18304;SDS011;9278;52.156;21.048;2023-04-15T04:02:13;20.90;;;12.88;;
18304;SDS011;9278;52.156;21.048;2023-04-15T04:04:41;19.98;;;12.30;;
18304;SDS011;9278;52.156;21.048;2023-04-15T04:07:13;17.25;;;11.60;;
18304;SDS011;9278;52.156;21.048;2023-04-15T04:09:42;22.02;;;12.93;;
18304;SDS011;9278;52.156;21.048;2023-04-15T04:12:14;25.77;;;12.20;;
18304;SDS011;9278;52.156;21.048;2023-04-15T04:14:42;20.58;;;12.60;;
18304;SDS011;9278;52.156;21.048;2023-04-15T04:17:12;19.45;;;12.80;;
18304;SDS011;9278;52.156;21.048;2023-04-15T04:19:40;21.83;;;13.00;;
18304;SDS011;9278;52.156;21.048;2023-04-15T04:22:08;21.35;;;11.93;;
18304;SDS011;9278;52.156;21.048;2023-04-15T04:24:37;19.52;;;12.35;;
18304;SDS011;9278;52.156;21.048;2023-04-15T04:27:05;19.98;;;12.38;;
18304;SDS011;9278;52.156;21.048;2023-04-15T04:29:35;20.58;;;11.85;;
18304;SDS011;9278;52.156;21.048;2023-04-15T04:32:03;21.55;;;11.68;;
18304;SDS011;9278;52.156;21.048;2023-04-15T04:34:32;19.40;;;12.27;;
18304;SDS011;9278;52.156;21.048;2023-04-15T04:37:00;24.25;;;12.52;;
18304;SDS011;9278;52.156;21.048;2023-04-15T04:39:28;20.27;;;12.38;;
18304;SDS011;9278;52.156;21.048;2023-04-15T04:41:56;17.40;;;11.32;;
18304;SDS011;9278;52.156;21.048;2023-04-15T04:44:25;22.17;;;12.30;;
18304;SDS011;9278;52.156;21.048;2023-04-15T04:46:55;19.08;;;12.32;;
18304;SDS011;9278;52.156;21.048;2023-04-15T04:49:23;19.02;;;11.50;;
18304;SDS011;9278;52.156;21.048;2023-04-15T04:51:51;17.50;;;11.90;;
18304;SDS011;9278;52.156;21.048;2023-04-15T04:54:20;17.45;;;11.80;;
18304;SDS011;9278;52.156;21.048;2023-04-15T04:56:48;19.83;;;12.18;;
18304;SDS011;9278;52.156;21.048;2023-04-15T04:59:17;18.90;;;11.70;;
18304;SDS011;9278;52.156;21.048;2023-04-15T05:01:45;17.88;;;11.25;;
18304;SDS011;9278;52.156;21.048;2023-04-15T05:04:15;19.50;;;11.75;;
18304;SDS011;9278;52.156;21.048;2023-04-15T05:06:43;17.88;;;11.82;;
18304;SDS011;9278;52.156;21.048;2023-04-15T05:09:11;19.25;;;12.07;;
18304;SDS011;9278;52.156;21.048;2023-04-15T05:11:40;19.08;;;11.68;;
18304;SDS011;9278;52.156;21.048;2023-04-15T05:14:08;19.80;;;11.70;;
18304;SDS011;9278;52.156;21.048;2023-04-15T05:16:36;19.73;;;11.98;;
18304;SDS011;9278;52.156;21.048;2023-04-15T05:19:04;21.25;;;11.25;;
18304;SDS011;9278;52.156;21.048;2023-04-15T05:21:34;20.45;;;12.35;;
18304;SDS011;9278;52.156;21.048;2023-04-15T05:24:05;17.42;;;11.13;;
18304;SDS011;9278;52.156;21.048;2023-04-15T05:26:33;19.83;;;10.68;;
18304;SDS011;9278;52.156;21.048;2023-04-15T05:29:01;18.90;;;12.00;;
18304;SDS011;9278;52.156;21.048;2023-04-15T05:31:30;17.52;;;10.93;;
18304;SDS011;9278;52.156;21.048;2023-04-15T05:33:58;17.13;;;11.75;;
18304;SDS011;9278;52.156;21.048;2023-04-15T05:36:26;18.85;;;12.13;;
18304;SDS011;9278;52.156;21.048;2023-04-15T05:38:56;17.58;;;11.52;;
18304;SDS011;9278;52.156;21.048;2023-04-15T05:41:25;17.35;;;11.32;;
18304;SDS011;9278;52.156;21.048;2023-04-15T05:43:53;18.08;;;11.13;;
18304;SDS011;9278;52.156;21.048;2023-04-15T05:46:21;18.00;;;11.25;;
18304;SDS011;9278;52.156;21.048;2023-04-15T05:48:49;16.20;;;10.85;;
18304;SDS011;9278;52.156;21.048;2023-04-15T05:51:20;15.50;;;10.30;;
18304;SDS011;9278;52.156;21.048;2023-04-15T05:53:48;15.80;;;10.13;;
18304;SDS011;9278;52.156;21.048;2023-04-15T05:56:17;17.08;;;10.55;;
18304;SDS011;9278;52.156;21.048;2023-04-15T05:58:46;15.90;;;10.65;;
18304;SDS011;9278;52.156;21.048;2023-04-15T06:01:17;16.83;;;10.23;;
18304;SDS011;9278;52.156;21.048;2023-04-15T06:03:46;18.38;;;10.77;;
18304;SDS011;9278;52.156;21.048;2023-04-15T06:06:14;16.88;;;10.25;;
18304;SDS011;9278;52.156;21.048;2023-04-15T06:08:42;16.80;;;9.73;;
18304;SDS011;9278;52.156;21.048;2023-04-15T06:11:10;15.27;;;10.38;;
18304;SDS011;9278;52.156;21.048;2023-04-15T06:13:40;16.05;;;10.25;;
18304;SDS011;9278;52.156;21.048;2023-04-15T06:16:08;14.68;;;9.88;;
18304;SDS011;9278;52.156;21.048;2023-04-15T06:18:37;16.42;;;9.45;;
18304;SDS011;9278;52.156;21.048;2023-04-15T06:21:05;16.92;;;9.52;;
18304;SDS011;9278;52.156;21.048;2023-04-15T06:23:33;14.73;;;9.23;;
18304;SDS011;9278;52.156;21.048;2023-04-15T06:26:02;13.63;;;9.57;;
18304;SDS011;9278;52.156;21.048;2023-04-15T06:28:30;13.60;;;9.10;;
18304;SDS011;9278;52.156;21.048;2023-04-15T06:31:00;13.00;;;9.63;;
18304;SDS011;9278;52.156;21.048;2023-04-15T06:33:29;14.68;;;9.18;;
18304;SDS011;9278;52.156;21.048;2023-04-15T06:35:57;13.27;;;8.05;;
18304;SDS011;9278;52.156;21.048;2023-04-15T06:38:26;15.55;;;8.98;;
18304;SDS011;9278;52.156;21.048;2023-04-15T06:40:54;12.90;;;8.15;;
18304;SDS011;9278;52.156;21.048;2023-04-15T06:43:23;13.05;;;8.35;;
18304;SDS011;9278;52.156;21.048;2023-04-15T06:45:51;12.18;;;8.32;;
18304;SDS011;9278;52.156;21.048;2023-04-15T06:48:20;12.25;;;8.55;;
18304;SDS011;9278;52.156;21.048;2023-04-15T06:50:49;11.02;;;7.75;;
18304;SDS011;9278;52.156;21.048;2023-04-15T06:53:17;13.82;;;8.30;;
18304;SDS011;9278;52.156;21.048;2023-04-15T06:55:45;10.48;;;7.45;;
18304;SDS011;9278;52.156;21.048;2023-04-15T06:58:13;11.57;;;8.05;;
18304;SDS011;9278;52.156;21.048;2023-04-15T07:00:42;11.75;;;7.75;;
18304;SDS011;9278;52.156;21.048;2023-04-15T07:03:11;12.57;;;8.40;;
18304;SDS011;9278;52.156;21.048;2023-04-15T07:05:41;11.07;;;7.80;;
18304;SDS011;9278;52.156;21.048;2023-04-15T07:08:10;10.15;;;7.45;;
18304;SDS011;9278;52.156;21.048;2023-04-15T07:10:39;9.43;;;6.57;;
18304;SDS011;9278;52.156;21.048;2023-04-15T07:13:07;12.88;;;6.90;;
18304;SDS011;9278;52.156;21.048;2023-04-15T07:15:35;9.40;;;6.80;;
18304;SDS011;9278;52.156;21.048;2023-04-15T07:18:04;9.82;;;7.18;;
18304;SDS011;9278;52.156;21.048;2023-04-15T07:20:32;9.23;;;6.70;;
18304;SDS011;9278;52.156;21.048;2023-04-15T07:23:04;9.65;;;6.07;;
18304;SDS011;9278;52.156;21.048;2023-04-15T07:25:36;8.20;;;6.57;;
18304;SDS011;9278;52.156;21.048;2023-04-15T07:28:04;8.00;;;5.78;;
18304;SDS011;9278;52.156;21.048;2023-04-15T07:30:33;11.30;;;6.38;;
18304;SDS011;9278;52.156;21.048;2023-04-15T07:33:01;8.70;;;6.28;;
18304;SDS011;9278;52.156;21.048;2023-04-15T07:35:29;8.23;;;6.47;;
18304;SDS011;9278;52.156;21.048;2023-04-15T07:37:58;10.65;;;6.50;;
18304;SDS011;9278;52.156;21.048;2023-04-15T07:40:28;10.10;;;6.63;;
18304;SDS011;9278;52.156;21.048;2023-04-15T07:42:57;12.10;;;6.97;;
18304;SDS011;9278;52.156;21.048;2023-04-15T07:45:25;9.77;;;6.32;;
18304;SDS011;9278;52.156;21.048;2023-04-15T07:47:53;9.65;;;6.20;;
18304;SDS011;9278;52.156;21.048;2023-04-15T07:50:23;8.20;;;6.10;;
18304;SDS011;9278;52.156;21.048;2023-04-15T07:52:51;9.18;;;6.20;;
18304;SDS011;9278;52.156;21.048;2023-04-15T07:55:20;8.43;;;6.53;;
18304;SDS011;9278;52.156;21.048;2023-04-15T07:57:50;7.88;;;5.85;;
18304;SDS011;9278;52.156;21.048;2023-04-15T08:00:18;7.60;;;5.63;;
18304;SDS011;9278;52.156;21.048;2023-04-15T08:02:46;7.97;;;5.82;;
18304;SDS011;9278;52.156;21.048;2023-04-15T08:05:15;9.50;;;6.40;;
18304;SDS011;9278;52.156;21.048;2023-04-15T08:07:44;8.05;;;5.72;;
18304;SDS011;9278;52.156;21.048;2023-04-15T08:10:13;8.00;;;5.65;;
18304;SDS011;9278;52.156;21.048;2023-04-15T08:12:41;11.02;;;6.10;;
18304;SDS011;9278;52.156;21.048;2023-04-15T08:15:11;8.35;;;5.70;;
18304;SDS011;9278;52.156;21.048;2023-04-15T08:17:39;8.35;;;5.60;;
18304;SDS011;9278;52.156;21.048;2023-04-15T08:20:08;12.80;;;5.43;;
18304;SDS011;9278;52.156;21.048;2023-04-15T08:22:36;8.90;;;5.50;;
18304;SDS011;9278;52.156;21.048;2023-04-15T08:25:05;8.25;;;5.50;;
18304;SDS011;9278;52.156;21.048;2023-04-15T08:27:34;6.28;;;4.60;;
18304;SDS011;9278;52.156;21.048;2023-04-15T08:30:03;8.65;;;5.80;;
18304;SDS011;9278;52.156;21.048;2023-04-15T08:32:33;10.82;;;5.15;;
18304;SDS011;9278;52.156;21.048;2023-04-15T08:35:03;9.15;;;5.38;;
18304;SDS011;9278;52.156;21.048;2023-04-15T08:37:32;6.30;;;4.80;;
18304;SDS011;9278;52.156;21.048;2023-04-15T08:40:00;7.10;;;4.90;;
18304;SDS011;9278;52.156;21.048;2023-04-15T08:42:29;7.22;;;5.05;;
18304;SDS011;9278;52.156;21.048;2023-04-15T08:45:03;7.20;;;4.50;;
18304;SDS011;9278;52.156;21.048;2023-04-15T08:47:31;8.30;;;4.47;;
18304;SDS011;9278;52.156;21.048;2023-04-15T08:50:03;6.05;;;4.35;;
18304;SDS011;9278;52.156;21.048;2023-04-15T08:52:31;7.85;;;4.25;;
18304;SDS011;9278;52.156;21.048;2023-04-15T08:55:01;6.07;;;4.53;;
18304;SDS011;9278;52.156;21.048;2023-04-15T08:57:30;6.85;;;4.25;;
18304;SDS011;9278;52.156;21.048;2023-04-15T08:59:59;4.88;;;4.03;;
18304;SDS011;9278;52.156;21.048;2023-04-15T09:02:31;5.50;;;3.92;;
18304;SDS011;9278;52.156;21.048;2023-04-15T09:05:01;4.93;;;3.80;;
18304;SDS011;9278;52.156;21.048;2023-04-15T09:07:32;5.28;;;3.72;;
18304;SDS011;9278;52.156;21.048;2023-04-15T09:10:02;5.18;;;3.80;;
18304;SDS011;9278;52.156;21.048;2023-04-15T09:12:32;5.68;;;4.00;;
18304;SDS011;9278;52.156;21.048;2023-04-15T09:15:02;4.90;;;3.47;;
18304;SDS011;9278;52.156;21.048;2023-04-15T09:17:31;5.38;;;3.90;;
18304;SDS011;9278;52.156;21.048;2023-04-15T09:20:08;4.15;;;3.40;;
18304;SDS011;9278;52.156;21.048;2023-04-15T09:22:38;6.32;;;3.88;;
18304;SDS011;9278;52.156;21.048;2023-04-15T09:27:55;4.63;;;3.60;;
18304;SDS011;9278;52.156;21.048;2023-04-15T09:30:24;4.57;;;3.22;;
18304;SDS011;9278;52.156;21.048;2023-04-15T09:32:54;6.30;;;3.70;;
18304;SDS011;9278;52.156;21.048;2023-04-15T09:35:25;4.68;;;3.63;;
18304;SDS011;9278;52.156;21.048;2023-04-15T09:38:00;4.63;;;3.15;;
18304;SDS011;9278;52.156;21.048;2023-04-15T09:40:34;4.60;;;3.40;;
18304;SDS011;9278;52.156;21.048;2023-04-15T09:43:03;3.55;;;3.17;;
18304;SDS011;9278;52.156;21.048;2023-04-15T09:45:33;4.38;;;3.53;;
18304;SDS011;9278;52.156;21.048;2023-04-15T09:48:17;4.40;;;3.50;;
18304;SDS011;9278;52.156;21.048;2023-04-15T09:50:49;4.55;;;3.33;;
18304;SDS011;9278;52.156;21.048;2023-04-15T09:53:22;4.78;;;3.50;;
18304;SDS011;9278;52.156;21.048;2023-04-15T09:55:52;5.40;;;3.72;;
18304;SDS011;9278;52.156;21.048;2023-04-15T09:58:22;5.10;;;3.63;;
18304;SDS011;9278;52.156;21.048;2023-04-15T10:00:52;3.75;;;3.20;;
18304;SDS011;9278;52.156;21.048;2023-04-15T10:03:22;5.93;;;3.60;;
18304;SDS011;9278;52.156;21.048;2023-04-15T10:05:54;6.57;;;3.58;;
18304;SDS011;9278;52.156;21.048;2023-04-15T10:08:24;4.63;;;3.78;;
18304;SDS011;9278;52.156;21.048;2023-04-15T10:10:54;4.75;;;3.50;;
18304;SDS011;9278;52.156;21.048;2023-04-15T10:13:23;5.47;;;3.33;;
18304;SDS011;9278;52.156;21.048;2023-04-15T10:15:56;4.38;;;3.08;;
18304;SDS011;9278;52.156;21.048;2023-04-15T10:18:26;4.85;;;3.45;;
18304;SDS011;9278;52.156;21.048;2023-04-15T10:21:00;3.92;;;3.45;;
18304;SDS011;9278;52.156;21.048;2023-04-15T10:23:28;8.77;;;3.83;;
18304;SDS011;9278;52.156;21.048;2023-04-15T10:25:57;6.25;;;3.15;;
18304;SDS011;9278;52.156;21.048;2023-04-15T10:28:26;3.97;;;3.22;;
18304;SDS011;9278;52.156;21.048;2023-04-15T10:30:54;6.28;;;3.35;;
18304;SDS011;9278;52.156;21.048;2023-04-15T10:33:24;5.82;;;3.55;;
18304;SDS011;9278;52.156;21.048;2023-04-15T10:35:54;5.05;;;3.60;;
18304;SDS011;9278;52.156;21.048;2023-04-15T10:38:34;4.32;;;3.42;;
18304;SDS011;9278;52.156;21.048;2023-04-15T10:41:14;5.30;;;3.63;;
18304;SDS011;9278;52.156;21.048;2023-04-15T10:43:50;6.38;;;3.90;;
18304;SDS011;9278;52.156;21.048;2023-04-15T10:46:22;4.43;;;3.38;;
18304;SDS011;9278;52.156;21.048;2023-04-15T10:49:06;5.65;;;3.58;;
18304;SDS011;9278;52.156;21.048;2023-04-15T10:51:37;7.78;;;3.60;;
18304;SDS011;9278;52.156;21.048;2023-04-15T10:54:12;6.97;;;3.90;;
18304;SDS011;9278;52.156;21.048;2023-04-15T10:56:41;6.47;;;3.85;;
18304;SDS011;9278;52.156;21.048;2023-04-15T10:59:10;4.43;;;3.10;;
18304;SDS011;9278;52.156;21.048;2023-04-15T11:01:51;6.35;;;3.55;;
18304;SDS011;9278;52.156;21.048;2023-04-15T11:07:37;5.53;;;3.45;;
18304;SDS011;9278;52.156;21.048;2023-04-15T11:13:19;5.60;;;3.60;;
18304;SDS011;9278;52.156;21.048;2023-04-15T11:15:57;4.35;;;3.30;;
18304;SDS011;9278;52.156;21.048;2023-04-15T11:18:28;4.72;;;3.47;;
18304;SDS011;9278;52.156;21.048;2023-04-15T11:20:59;4.57;;;3.30;;
18304;SDS011;9278;52.156;21.048;2023-04-15T11:23:32;10.32;;;4.00;;
18304;SDS011;9278;52.156;21.048;2023-04-15T11:26:03;4.90;;;3.35;;
18304;SDS011;9278;52.156;21.048;2023-04-15T11:28:37;6.35;;;3.83;;
18304;SDS011;9278;52.156;21.048;2023-04-15T11:31:07;6.18;;;4.20;;
18304;SDS011;9278;52.156;21.048;2023-04-15T11:33:52;7.13;;;4.72;;
18304;SDS011;9278;52.156;21.048;2023-04-15T11:36:23;6.15;;;4.30;;
18304;SDS011;9278;52.156;21.048;2023-04-15T11:38:53;6.65;;;4.30;;
18304;SDS011;9278;52.156;21.048;2023-04-15T11:41:21;6.72;;;4.07;;
18304;SDS011;9278;52.156;21.048;2023-04-15T11:43:51;7.32;;;4.22;;
18304;SDS011;9278;52.156;21.048;2023-04-15T11:46:20;8.18;;;4.68;;
18304;SDS011;9278;52.156;21.048;2023-04-15T11:48:48;10.70;;;4.72;;
18304;SDS011;9278;52.156;21.048;2023-04-15T11:51:17;7.75;;;4.45;;
18304;SDS011;9278;52.156;21.048;2023-04-15T11:53:47;6.20;;;4.60;;
18304;SDS011;9278;52.156;21.048;2023-04-15T11:56:17;7.07;;;4.00;;
18304;SDS011;9278;52.156;21.048;2023-04-15T11:58:47;7.43;;;4.03;;
18304;SDS011;9278;52.156;21.048;2023-04-15T12:01:20;7.10;;;4.20;;
18304;SDS011;9278;52.156;21.048;2023-04-15T12:03:57;6.22;;;4.25;;
18304;SDS011;9278;52.156;21.048;2023-04-15T12:06:30;5.60;;;4.07;;
18304;SDS011;9278;52.156;21.048;2023-04-15T12:09:02;5.95;;;4.30;;
18304;SDS011;9278;52.156;21.048;2023-04-15T12:11:39;5.18;;;3.72;;
18304;SDS011;9278;52.156;21.048;2023-04-15T12:14:15;7.63;;;3.88;;
18304;SDS011;9278;52.156;21.048;2023-04-15T12:16:50;4.43;;;2.58;;
18304;SDS011;9278;52.156;21.048;2023-04-15T12:19:24;2.90;;;2.00;;
18304;SDS011;9278;52.156;21.048;2023-04-15T12:21:56;3.13;;;2.30;;
18304;SDS011;9278;52.156;21.048;2023-04-15T12:24:26;4.13;;;2.80;;
18304;SDS011;9278;52.156;21.048;2023-04-15T12:27:00;7.70;;;2.80;;
18304;SDS011;9278;52.156;21.048;2023-04-15T12:29:30;4.20;;;2.83;;
18304;SDS011;9278;52.156;21.048;2023-04-15T12:32:04;3.55;;;2.72;;
18304;SDS011;9278;52.156;21.048;2023-04-15T12:34:35;3.35;;;2.83;;
18304;SDS011;9278;52.156;21.048;2023-04-15T12:37:04;4.82;;;3.30;;
18304;SDS011;9278;52.156;21.048;2023-04-15T12:39:35;4.40;;;2.88;;
18304;SDS011;9278;52.156;21.048;2023-04-15T12:42:05;5.78;;;2.92;;
18304;SDS011;9278;52.156;21.048;2023-04-15T12:44:34;4.80;;;2.30;;
18304;SDS011;9278;52.156;21.048;2023-04-15T12:47:04;2.92;;;2.28;;
18304;SDS011;9278;52.156;21.048;2023-04-15T12:49:34;5.82;;;2.72;;
18304;SDS011;9278;52.156;21.048;2023-04-15T12:52:03;4.97;;;2.65;;
18304;SDS011;9278;52.156;21.048;2023-04-15T12:54:32;5.85;;;2.75;;
18304;SDS011;9278;52.156;21.048;2023-04-15T12:57:01;4.28;;;2.72;;
18304;SDS011;9278;52.156;21.048;2023-04-15T12:59:33;4.75;;;2.80;;
18304;SDS011;9278;52.156;21.048;2023-04-15T13:02:02;4.55;;;2.72;;
18304;SDS011;9278;52.156;21.048;2023-04-15T13:04:32;4.70;;;2.35;;
18304;SDS011;9278;52.156;21.048;2023-04-15T13:07:01;4.35;;;1.98;;
18304;SDS011;9278;52.156;21.048;2023-04-15T13:09:29;3.08;;;2.00;;
18304;SDS011;9278;52.156;21.048;2023-04-15T13:11:57;3.00;;;1.70;;
18304;SDS011;9278;52.156;21.048;2023-04-15T13:14:26;2.63;;;1.60;;
18304;SDS011;9278;52.156;21.048;2023-04-15T13:17:01;3.50;;;1.70;;
18304;SDS011;9278;52.156;21.048;2023-04-15T13:19:37;2.03;;;1.30;;
18304;SDS011;9278;52.156;21.048;2023-04-15T13:22:06;3.78;;;1.63;;
18304;SDS011;9278;52.156;21.048;2023-04-15T13:24:34;5.57;;;2.20;;
18304;SDS011;9278;52.156;21.048;2023-04-15T13:27:04;3.05;;;1.98;;
18304;SDS011;9278;52.156;21.048;2023-04-15T13:29:34;3.42;;;2.05;;
18304;SDS011;9278;52.156;21.048;2023-04-15T13:32:03;3.50;;;2.10;;
18304;SDS011;9278;52.156;21.048;2023-04-15T13:34:35;3.17;;;1.83;;
18304;SDS011;9278;52.156;21.048;2023-04-15T13:37:06;5.13;;;2.20;;
18304;SDS011;9278;52.156;21.048;2023-04-15T13:39:35;5.45;;;2.50;;
18304;SDS011;9278;52.156;21.048;2023-04-15T13:42:03;3.22;;;2.30;;
18304;SDS011;9278;52.156;21.048;2023-04-15T13:44:31;4.63;;;2.70;;
18304;SDS011;9278;52.156;21.048;2023-04-15T13:47:00;4.22;;;2.30;;
18304;SDS011;9278;52.156;21.048;2023-04-15T13:49:28;6.10;;;2.35;;
18304;SDS011;9278;52.156;21.048;2023-04-15T13:51:56;5.55;;;1.92;;
18304;SDS011;9278;52.156;21.048;2023-04-15T13:54:26;5.28;;;2.67;;
18304;SDS011;9278;52.156;21.048;2023-04-15T13:57:03;3.38;;;2.17;;
18304;SDS011;9278;52.156;21.048;2023-04-15T13:59:32;3.17;;;2.13;;
18304;SDS011;9278;52.156;21.048;2023-04-15T14:02:01;3.05;;;2.10;;
18304;SDS011;9278;52.156;21.048;2023-04-15T14:04:29;4.60;;;2.10;;
18304;SDS011;9278;52.156;21.048;2023-04-15T14:06:59;4.78;;;2.40;;
18304;SDS011;9278;52.156;21.048;2023-04-15T14:09:31;3.45;;;1.98;;
18304;SDS011;9278;52.156;21.048;2023-04-15T14:12:00;3.72;;;1.75;;
18304;SDS011;9278;52.156;21.048;2023-04-15T14:14:29;3.85;;;2.28;;
18304;SDS011;9278;52.156;21.048;2023-04-15T14:16:57;4.22;;;2.20;;
18304;SDS011;9278;52.156;21.048;2023-04-15T14:19:26;3.28;;;2.15;;
18304;SDS011;9278;52.156;21.048;2023-04-15T14:21:56;3.67;;;2.30;;
18304;SDS011;9278;52.156;21.048;2023-04-15T14:24:26;4.97;;;2.10;;
18304;SDS011;9278;52.156;21.048;2023-04-15T14:26:56;6.50;;;2.72;;
18304;SDS011;9278;52.156;21.048;2023-04-15T14:29:25;4.60;;;2.33;;
18304;SDS011;9278;52.156;21.048;2023-04-15T14:31:53;2.95;;;2.10;;
18304;SDS011;9278;52.156;21.048;2023-04-15T14:34:37;4.97;;;1.98;;
18304;SDS011;9278;52.156;21.048;2023-04-15T14:37:06;4.82;;;1.90;;
18304;SDS011;9278;52.156;21.048;2023-04-15T14:39:34;2.80;;;2.00;;
18304;SDS011;9278;52.156;21.048;2023-04-15T14:42:04;2.55;;;1.85;;
18304;SDS011;9278;52.156;21.048;2023-04-15T14:44:32;2.45;;;1.90;;
18304;SDS011;9278;52.156;21.048;2023-04-15T14:47:01;4.15;;;1.70;;
18304;SDS011;9278;52.156;21.048;2023-04-15T14:49:29;2.90;;;1.75;;
18304;SDS011;9278;52.156;21.048;2023-04-15T14:51:58;4.60;;;2.10;;
18304;SDS011;9278;52.156;21.048;2023-04-15T14:54:26;2.20;;;1.80;;
18304;SDS011;9278;52.156;21.048;2023-04-15T14:56:55;3.05;;;1.88;;
18304;SDS011;9278;52.156;21.048;2023-04-15T14:59:25;2.00;;;1.60;;
18304;SDS011;9278;52.156;21.048;2023-04-15T15:01:53;3.28;;;1.70;;
18304;SDS011;9278;52.156;21.048;2023-04-15T15:04:22;2.60;;;1.83;;